Powers, Michigan
Current Conditions -  °F | °C
As of 9:35 AM on Thursday 30 Oct 2014 (Local Time) from KESC Reporting Station
Overcast Overcast  
Wind Chill:   Ceiling: 3700
Heat Index:   Visibility: 10mi
Dew Point: -1°   Wind: 0mph
Humidity: 61%   Direction: NA
Pressure: 30.05"   Gusts: NA
Location:  45.69°N, 87.53°W
Report Text: KESC 301435Z AUTO 00000KT 10SM OVC037 06/M01 A3005 RMK AO1
Loading
Personal Weather Stations






























Interactive Weather Map
Tropical Storm Tracking
New forecast layout! Learn more

10-Day Weather Forecast

Advertisements
Track Severe Weather on mobile